createdAt,value
2017-02-03T00:03:14.699Z,5.29
2017-02-03T00:08:11.493Z,5.26
2017-02-03T00:13:08.023Z,5.39
2017-02-03T00:18:04.686Z,5.38
2017-02-03T00:23:01.744Z,5.43
2017-02-03T00:27:58.254Z,5.38
2017-02-03T00:32:55.118Z,5.41
2017-02-03T00:37:51.522Z,5.38
2017-02-03T00:42:48.829Z,5.36
2017-02-03T00:47:45.609Z,5.35
2017-02-03T00:52:42.222Z,5.26
2017-02-03T00:57:38.562Z,5.30
2017-02-03T01:02:35.302Z,5.39
2017-02-03T01:07:31.942Z,5.29
2017-02-03T01:12:28.593Z,5.29
2017-02-03T01:17:24.838Z,5.11
2017-02-03T01:22:21.360Z,5.05
2017-02-03T01:27:18.170Z,5.08
2017-02-03T01:32:14.463Z,5.12
2017-02-03T01:37:11.794Z,5.12
2017-02-03T01:42:08.461Z,4.97
2017-02-03T01:47:05.405Z,4.84
2017-02-03T01:52:01.572Z,4.90
2017-02-03T01:56:57.865Z,4.96
2017-02-03T02:01:54.201Z,4.87
2017-02-03T02:06:50.537Z,4.87
2017-02-03T02:11:47.257Z,4.86
2017-02-03T02:16:44.321Z,4.89
2017-02-03T02:21:40.859Z,4.96
2017-02-03T02:26:37.370Z,4.90
2017-02-03T02:31:33.820Z,5.08
2017-02-03T02:36:31.231Z,5.00
2017-02-03T02:41:27.704Z,5.05
2017-02-03T02:46:24.265Z,5.15
2017-02-03T02:51:23.998Z,5.08
2017-02-03T02:56:20.094Z,4.97
2017-02-03T03:01:17.301Z,5.04
2017-02-03T03:06:13.694Z,5.10
2017-02-03T03:11:10.364Z,5.21
2017-02-03T03:16:07.091Z,5.20
2017-02-03T03:21:04.430Z,5.21
2017-02-03T03:26:01.328Z,5.28
2017-02-03T03:30:57.737Z,5.25
2017-02-03T03:35:54.304Z,5.21
2017-02-03T03:40:51.115Z,5.18
2017-02-03T03:45:47.701Z,5.14
2017-02-03T03:50:44.420Z,5.17
2017-02-03T03:55:40.857Z,5.21
2017-02-03T04:00:37.733Z,5.25
2017-02-03T04:05:35.632Z,5.25
2017-02-03T04:10:31.924Z,5.29
2017-02-03T04:15:28.373Z,5.25
2017-02-03T04:20:25.025Z,5.35
2017-02-03T04:25:21.275Z,5.44
2017-02-03T04:30:17.887Z,5.39
2017-02-03T04:35:14.409Z,5.29
2017-02-03T04:40:10.983Z,5.36
2017-02-03T04:45:07.866Z,5.32
2017-02-03T04:50:04.528Z,5.26
2017-02-03T04:55:00.916Z,5.32
2017-02-03T04:59:57.281Z,5.41
2017-02-03T05:04:53.748Z,5.44
2017-02-03T05:09:50.599Z,5.53
2017-02-03T05:14:47.200Z,5.57
2017-02-03T05:19:43.844Z,5.61
2017-02-03T05:24:41.092Z,5.71
2017-02-03T05:29:37.585Z,5.64
2017-02-03T05:34:33.864Z,5.82
2017-02-03T05:39:30.474Z,5.82
2017-02-03T05:44:26.784Z,5.84
2017-02-03T05:49:24.798Z,5.89
2017-02-03T05:54:21.421Z,5.90
2017-02-03T05:59:18.102Z,5.87
2017-02-03T06:04:15.666Z,5.87
2017-02-03T06:09:12.179Z,5.99
2017-02-03T06:14:08.851Z,6.08
2017-02-03T06:19:05.286Z,6.27
2017-02-03T06:24:01.789Z,6.44
2017-02-03T06:28:58.223Z,6.52
2017-02-03T06:33:54.706Z,6.52
2017-02-03T06:38:51.634Z,6.57
2017-02-03T06:43:48.085Z,6.56
2017-02-03T06:48:44.635Z,6.54
2017-02-03T06:53:41.126Z,6.52
2017-02-03T06:58:37.785Z,6.54
2017-02-03T07:03:34.420Z,6.59
2017-02-03T07:08:30.946Z,6.62
2017-02-03T07:13:27.646Z,6.66
2017-02-03T07:18:24.045Z,6.64
2017-02-03T07:23:20.305Z,6.77
2017-02-03T07:28:17.210Z,6.74
2017-02-03T07:33:13.751Z,6.69
2017-02-03T07:38:10.184Z,6.70
2017-02-03T07:43:06.607Z,6.82
2017-02-03T07:48:02.956Z,6.95
2017-02-03T07:52:59.445Z,7.07
2017-02-03T07:57:56.795Z,7.11
2017-02-03T08:02:54.318Z,7.20
2017-02-03T08:07:50.906Z,7.18
2017-02-03T08:12:48.399Z,7.31
2017-02-03T08:17:44.905Z,7.38
2017-02-03T08:22:41.595Z,7.45
2017-02-03T08:27:38.117Z,7.56
2017-02-03T08:32:36.035Z,7.66
2017-02-03T08:37:32.197Z,7.67
2017-02-03T08:42:29.670Z,7.79
2017-02-03T08:47:26.313Z,7.91
2017-02-03T08:52:22.630Z,7.94
2017-02-03T08:57:19.024Z,7.90
2017-02-03T09:02:15.847Z,8.18
2017-02-03T09:07:12.624Z,8.24
2017-02-03T09:12:10.172Z,8.42
2017-02-03T09:17:07.190Z,8.56
2017-02-03T09:22:03.917Z,8.73
2017-02-03T09:27:00.790Z,9.03
2017-02-03T09:31:57.249Z,9.16
2017-02-03T09:36:53.689Z,9.39
2017-02-03T09:41:50.151Z,9.43
2017-02-03T09:46:47.243Z,9.51
2017-02-03T09:51:43.592Z,9.55
2017-02-03T09:56:40.252Z,9.51
2017-02-03T10:01:36.573Z,9.59
2017-02-03T10:06:34.087Z,9.62
2017-02-03T10:11:30.762Z,9.69
2017-02-03T10:16:27.648Z,9.72
2017-02-03T10:21:24.163Z,9.84
2017-02-03T10:26:20.733Z,9.94
2017-02-03T10:31:17.233Z,10.02
2017-02-03T10:36:13.735Z,10.04
2017-02-03T10:41:10.289Z,10.05
2017-02-03T10:46:07.445Z,10.30
2017-02-03T10:51:04.212Z,10.28
2017-02-03T10:56:00.602Z,10.20
2017-02-03T11:00:57.327Z,10.07
2017-02-03T11:05:53.984Z,10.13
2017-02-03T11:10:50.617Z,10.12
2017-02-03T11:15:47.103Z,10.05
2017-02-03T11:20:43.766Z,10.05
2017-02-03T11:25:40.511Z,10.10
2017-02-03T11:30:36.707Z,10.09
2017-02-03T11:35:33.322Z,10.07
2017-02-03T11:40:30.094Z,10.09
2017-02-03T11:45:26.722Z,10.07
2017-02-03T11:50:22.902Z,10.05
2017-02-03T11:55:19.853Z,10.20
2017-02-03T12:00:16.766Z,10.31
2017-02-03T12:05:13.210Z,10.37
2017-02-03T12:10:09.892Z,10.40
2017-02-03T12:15:06.476Z,10.34
2017-02-03T12:20:03.090Z,10.23
2017-02-03T12:24:59.616Z,10.19
2017-02-03T12:29:58.586Z,10.20
2017-02-03T12:34:54.699Z,10.20
2017-02-03T12:39:51.186Z,10.28
2017-02-03T12:44:47.791Z,10.23
2017-02-03T12:49:44.247Z,10.34
2017-02-03T12:54:40.917Z,10.42
2017-02-03T12:59:37.815Z,10.37
2017-02-03T13:04:34.620Z,10.42
2017-02-03T13:09:32.095Z,10.44
2017-02-03T13:14:28.633Z,10.57
2017-02-03T13:19:25.626Z,10.54
2017-02-03T13:24:21.982Z,10.42
2017-02-03T13:29:19.000Z,10.46
2017-02-03T13:34:15.721Z,10.46
2017-02-03T13:39:12.658Z,10.60
2017-02-03T13:44:09.513Z,10.57
2017-02-03T13:49:05.740Z,10.72
2017-02-03T13:54:02.385Z,10.84
2017-02-03T13:59:00.300Z,10.82
2017-02-03T14:03:57.526Z,10.93
2017-02-03T14:08:54.150Z,11.44
2017-02-03T14:13:50.875Z,11.60
2017-02-03T14:18:47.662Z,12.00
2017-02-03T14:23:45.249Z,12.43
2017-02-03T14:28:42.515Z,12.29
2017-02-03T14:33:39.679Z,12.17
2017-02-03T14:38:35.777Z,11.81
2017-02-03T14:43:32.695Z,11.54
2017-02-03T14:48:29.136Z,11.32
2017-02-03T14:53:25.309Z,11.18
2017-02-03T14:58:21.715Z,11.14
2017-02-03T15:03:18.097Z,11.27
2017-02-03T15:08:14.598Z,11.08
2017-02-03T15:13:11.011Z,11.05
2017-02-03T15:18:07.889Z,10.99
2017-02-03T15:23:04.327Z,10.92
2017-02-03T15:28:00.563Z,10.75
2017-02-03T15:32:57.065Z,10.74
2017-02-03T15:37:53.574Z,10.69
2017-02-03T15:42:49.980Z,10.61
2017-02-03T15:47:46.294Z,10.63
2017-02-03T15:52:43.273Z,10.51
2017-02-03T15:57:43.129Z,10.42
2017-02-03T16:02:40.344Z,10.48
2017-02-03T16:07:36.629Z,10.35
2017-02-03T16:12:33.070Z,10.35
2017-02-03T16:17:29.416Z,10.19
2017-02-03T16:22:26.434Z,10.15
2017-02-03T16:27:22.741Z,10.07
2017-02-03T16:32:19.293Z,9.99
2017-02-03T16:37:15.580Z,9.89
2017-02-03T16:42:12.254Z,9.82
2017-02-03T16:47:09.080Z,9.79
2017-02-03T16:52:05.813Z,9.76
2017-02-03T16:57:02.288Z,9.76
2017-02-03T17:01:58.791Z,9.76
2017-02-03T17:06:55.120Z,9.72
2017-02-03T17:11:51.892Z,9.66
2017-02-03T17:16:48.111Z,9.77
2017-02-03T17:21:44.686Z,9.68
2017-02-03T17:26:41.647Z,9.47
2017-02-03T17:31:38.097Z,9.39
2017-02-03T17:36:34.440Z,9.34
2017-02-03T17:41:31.480Z,9.21
2017-02-03T17:46:28.905Z,9.06
2017-02-03T17:51:25.702Z,8.85
2017-02-03T17:56:22.033Z,8.64
2017-02-03T18:01:18.488Z,8.44
2017-02-03T18:06:14.763Z,8.38
2017-02-03T18:11:11.285Z,8.20
2017-02-03T18:16:07.883Z,8.28
2017-02-03T18:21:04.186Z,8.20
2017-02-03T18:26:00.823Z,8.06
2017-02-03T18:30:57.163Z,8.00
2017-02-03T18:35:53.623Z,7.97
2017-02-03T18:40:50.125Z,7.91
2017-02-03T18:45:47.425Z,7.85
2017-02-03T18:50:43.641Z,7.79
2017-02-03T18:55:40.585Z,7.58
2017-02-03T19:00:37.357Z,7.57
2017-02-03T19:05:33.744Z,7.54
2017-02-03T19:10:30.347Z,7.42
2017-02-03T19:15:27.027Z,7.33
2017-02-03T19:20:23.505Z,7.28
2017-02-03T19:25:20.148Z,7.31
2017-02-03T19:30:16.590Z,7.20
2017-02-03T19:35:13.704Z,7.20
2017-02-03T19:40:10.261Z,7.23
2017-02-03T19:45:07.061Z,7.20
2017-02-03T19:50:03.429Z,7.25
2017-02-03T19:55:00.043Z,7.48
2017-02-03T19:59:56.869Z,7.69
2017-02-03T20:04:54.346Z,7.79
2017-02-03T20:09:51.029Z,7.70
2017-02-03T20:14:47.491Z,7.54
2017-02-03T20:19:43.929Z,7.47
2017-02-03T20:24:40.466Z,7.39
2017-02-03T20:29:37.030Z,7.32
2017-02-03T20:34:36.471Z,7.32
2017-02-03T20:39:32.110Z,7.28
2017-02-03T20:44:28.712Z,7.23
2017-02-03T20:49:25.153Z,7.15
2017-02-03T20:54:21.605Z,7.06
2017-02-03T20:59:18.196Z,6.96
2017-02-03T21:04:14.990Z,6.96
2017-02-03T21:09:11.155Z,6.92
2017-02-03T21:14:07.119Z,6.82
2017-02-03T21:19:03.575Z,6.87
2017-02-03T21:24:00.034Z,6.74
2017-02-03T21:28:56.467Z,6.66
2017-02-03T21:33:53.261Z,6.62
2017-02-03T21:38:49.756Z,6.52
2017-02-03T21:43:46.997Z,6.28
2017-02-03T21:48:43.890Z,6.19
2017-02-03T21:53:41.275Z,6.01
2017-02-03T21:58:37.846Z,6.05
2017-02-03T22:03:33.853Z,5.87
2017-02-03T22:08:30.126Z,6.08
2017-02-03T22:13:26.895Z,6.02
2017-02-03T22:18:23.226Z,5.99
2017-02-03T22:23:20.318Z,5.89
2017-02-03T22:28:18.834Z,5.84
2017-02-03T22:33:15.660Z,5.93
2017-02-03T22:38:12.312Z,5.86
2017-02-03T22:43:09.205Z,5.72
2017-02-03T22:48:05.893Z,5.80
2017-02-03T22:53:02.373Z,5.57
2017-02-03T22:57:58.765Z,5.51
2017-02-03T23:02:55.392Z,5.47
2017-02-03T23:07:52.391Z,5.48
2017-02-03T23:12:48.836Z,5.57
2017-02-03T23:17:45.085Z,5.80
2017-02-03T23:22:42.375Z,5.89
2017-02-03T23:27:38.802Z,5.99
2017-02-03T23:32:35.294Z,5.82
2017-02-03T23:37:32.796Z,5.73
2017-02-03T23:42:29.812Z,5.69
2017-02-03T23:47:26.185Z,5.94
2017-02-03T23:52:22.654Z,5.86
2017-02-03T23:57:23.256Z,6.14
